Time;durP1;ratioP1;P1;durP2;ratioP2;P2;SDS_P1;SDS_P2;PMS_P1;PMS_P2;Temp;Humidity;BMP_temperature;BMP_pressure;BME280_temperature;BME280_humidity;BME280_pressure;Samples;Min_cycle;Max_cycle;Signal;HPM_P1;HPM_P2
2021/01/06 00:00:57;;;;;;;28.10;16.85;;;;;;;;;;5037332;28;20044;-81
2021/01/06 00:03:43;;;;;;;29.13;18.15;;;;;;;;;;5036093;28;20484;-81
2021/01/06 00:06:29;;;;;;;27.73;17.05;;;;;;;;;;5033315;28;20094;-81
2021/01/06 00:09:14;;;;;;;26.02;16.00;;;;;;;;;;5041725;28;20029;-81
2021/01/06 00:11:59;;;;;;;25.10;16.75;;;;;;;;;;5039717;28;20033;-82
2021/01/06 00:14:45;;;;;;;29.15;18.40;;;;;;;;;;5038895;28;20460;-80
2021/01/06 00:17:30;;;;;;;25.85;15.35;;;;;;;;;;5036258;28;20529;-81
2021/01/06 00:20:17;;;;;;;26.17;17.48;;;;;;;;;;5037642;28;20018;-81
2021/01/06 00:23:02;;;;;;;23.58;15.85;;;;;;;;;;5040210;28;20119;-81
2021/01/06 00:25:47;;;;;;;26.52;18.63;;;;;;;;;;5033441;28;20492;-81
2021/01/06 00:28:33;;;;;;;25.55;16.02;;;;;;;;;;5042399;28;20068;-81
2021/01/06 00:31:18;;;;;;;25.52;15.88;;;;;;;;;;5040608;28;20477;-82
2021/01/06 00:34:03;;;;;;;25.02;15.68;;;;;;;;;;5041634;28;20013;-81
2021/01/06 00:36:49;;;;;;;27.58;17.30;;;;;;;;;;5035767;28;20033;-80
2021/01/06 00:39:34;;;;;;;24.20;16.27;;;;;;;;;;5035281;28;20025;-79
2021/01/06 00:42:19;;;;;;;23.17;14.30;;;;;;;;;;5036747;28;20430;-82
2021/01/06 00:45:08;;;;;;;27.17;16.33;;;;;;;;;;5039454;28;20029;-81
2021/01/06 00:47:54;;;;;;;23.70;15.73;;;;;;;;;;5035084;28;20103;-81
2021/01/06 00:50:40;;;;;;;21.30;14.70;;;;;;;;;;5041238;28;20028;-81
2021/01/06 00:53:26;;;;;;;22.08;13.98;;;;;;;;;;5038866;28;20091;-82
2021/01/06 00:56:11;;;;;;;26.08;16.10;;;;;;;;;;5040045;28;20077;-82
2021/01/06 00:58:57;;;;;;;23.45;15.48;;;;;;;;;;5035932;28;20582;-81
2021/01/06 01:01:42;;;;;;;24.92;16.65;;;;;;;;;;5035780;28;20025;-80
2021/01/06 01:04:27;;;;;;;25.00;15.98;;;;;;;;;;5034406;28;20119;-80
2021/01/06 01:07:13;;;;;;;24.13;15.32;;;;;;;;;;5039094;28;20032;-80
2021/01/06 01:09:58;;;;;;;23.58;14.77;;;;;;;;;;5031218;28;20587;-80
2021/01/06 01:12:43;;;;;;;24.40;15.70;;;;;;;;;;5038554;28;20444;-80
2021/01/06 01:15:30;;;;;;;27.90;15.30;;;;;;;;;;5035301;28;20018;-80
2021/01/06 01:18:17;;;;;;;22.73;15.50;;;;;;;;;;5037681;28;20013;-81
2021/01/06 01:21:02;;;;;;;24.52;16.05;;;;;;;;;;5042634;28;20036;-81
2021/01/06 01:23:48;;;;;;;21.50;14.63;;;;;;;;;;5038006;28;20021;-80
2021/01/06 01:26:33;;;;;;;25.42;15.80;;;;;;;;;;5039498;28;20024;-81
2021/01/06 01:29:19;;;;;;;28.80;15.45;;;;;;;;;;5036445;28;20050;-80
2021/01/06 01:32:04;;;;;;;24.88;15.70;;;;;;;;;;5033141;28;20109;-82
2021/01/06 01:34:49;;;;;;;24.30;15.98;;;;;;;;;;5038398;28;20017;-81
2021/01/06 01:37:34;;;;;;;25.17;15.43;;;;;;;;;;5043509;28;20028;-81
2021/01/06 01:40:30;;;;;;;22.52;13.65;;;;;;;;;;5041556;28;20032;-81
2021/01/06 01:43:17;;;;;;;24.67;14.18;;;;;;;;;;5052479;28;20568;-81
2021/01/06 01:46:03;;;;;;;22.30;13.73;;;;;;;;;;5035091;28;20068;-82
2021/01/06 01:48:50;;;;;;;25.13;16.23;;;;;;;;;;5040674;28;20140;-82
2021/01/06 01:51:37;;;;;;;26.13;15.07;;;;;;;;;;5048295;28;20068;-81
2021/01/06 01:54:24;;;;;;;22.52;14.13;;;;;;;;;;5033041;28;20108;-81
2021/01/06 01:57:12;;;;;;;22.27;13.50;;;;;;;;;;5036879;28;20057;-79
2021/01/06 02:00:04;;;;;;;24.15;14.90;;;;;;;;;;5036762;28;20048;-80
2021/01/06 02:02:58;;;;;;;23.33;14.50;;;;;;;;;;5037936;28;20033;-82
2021/01/06 02:05:47;;;;;;;21.75;13.38;;;;;;;;;;5035845;28;20479;-80
2021/01/06 02:08:35;;;;;;;22.15;12.90;;;;;;;;;;5039939;28;20029;-80
2021/01/06 02:11:26;;;;;;;20.17;13.10;;;;;;;;;;5040665;28;20026;-82
2021/01/06 02:14:14;;;;;;;20.52;12.80;;;;;;;;;;5031431;28;20025;-80
2021/01/06 02:17:04;;;;;;;21.02;13.38;;;;;;;;;;5034845;28;20702;-81
2021/01/06 02:19:49;;;;;;;21.00;12.35;;;;;;;;;;5040244;28;20029;-80
2021/01/06 02:22:34;;;;;;;19.50;12.23;;;;;;;;;;5035100;28;20415;-81
2021/01/06 02:25:21;;;;;;;19.77;13.02;;;;;;;;;;5039883;28;20360;-80
2021/01/06 02:28:08;;;;;;;21.75;12.65;;;;;;;;;;5037531;28;20468;-80
2021/01/06 02:30:53;;;;;;;19.85;12.98;;;;;;;;;;5036468;28;20029;-80
2021/01/06 02:33:39;;;;;;;18.48;11.57;;;;;;;;;;5036007;28;20071;-81
2021/01/06 02:36:24;;;;;;;18.45;12.15;;;;;;;;;;5036365;28;20506;-80
2021/01/06 02:39:10;;;;;;;19.95;13.57;;;;;;;;;;5038336;28;20142;-80
2021/01/06 02:41:55;;;;;;;20.27;13.38;;;;;;;;;;5034049;28;20034;-80
2021/01/06 02:44:40;;;;;;;20.83;12.93;;;;;;;;;;5039441;28;20128;-81
2021/01/06 02:47:29;;;;;;;17.83;11.23;;;;;;;;;;5036957;28;20029;-80
2021/01/06 02:50:15;;;;;;;21.05;13.02;;;;;;;;;;5035448;28;20093;-81
2021/01/06 02:53:06;;;;;;;22.15;12.23;;;;;;;;;;5037015;28;20053;-82
2021/01/06 02:55:57;;;;;;;19.67;11.88;;;;;;;;;;5040267;28;20442;-82
2021/01/06 02:58:44;;;;;;;19.63;11.63;;;;;;;;;;5032042;28;20128;-79
2021/01/06 03:01:33;;;;;;;18.95;10.63;;;;;;;;;;5041944;28;20487;-80
2021/01/06 03:04:18;;;;;;;19.23;11.40;;;;;;;;;;5034312;28;20463;-80
2021/01/06 03:07:04;;;;;;;17.40;10.93;;;;;;;;;;5037093;28;20403;-80
2021/01/06 03:09:49;;;;;;;19.92;11.77;;;;;;;;;;5038410;28;20056;-81
2021/01/06 03:12:35;;;;;;;17.90;11.57;;;;;;;;;;5032672;28;20021;-82
2021/01/06 03:15:21;;;;;;;17.40;10.68;;;;;;;;;;5034666;28;20021;-81
2021/01/06 03:18:06;;;;;;;18.25;12.25;;;;;;;;;;5033065;28;20087;-81
2021/01/06 03:20:53;;;;;;;20.40;12.68;;;;;;;;;;5034588;28;20420;-80
2021/01/06 03:23:41;;;;;;;18.13;11.32;;;;;;;;;;5029612;28;20025;-80
2021/01/06 03:26:27;;;;;;;16.63;11.50;;;;;;;;;;5034959;28;20321;-81
2021/01/06 03:29:13;;;;;;;16.63;11.30;;;;;;;;;;5033242;28;20016;-80
2021/01/06 03:32:01;;;;;;;18.08;11.80;;;;;;;;;;5040382;28;20094;-79
2021/01/06 03:34:50;;;;;;;18.90;11.50;;;;;;;;;;5041379;28;20027;-80
2021/01/06 03:37:43;;;;;;;18.27;10.95;;;;;;;;;;5040434;28;20029;-80
2021/01/06 03:40:30;;;;;;;16.95;10.35;;;;;;;;;;5040530;28;20033;-81
2021/01/06 03:43:17;;;;;;;17.83;10.98;;;;;;;;;;5037367;28;20032;-80
2021/01/06 03:46:04;;;;;;;15.35;9.98;;;;;;;;;;5041964;28;20501;-79
2021/01/06 03:48:49;;;;;;;15.85;10.30;;;;;;;;;;5038882;28;20017;-80
2021/01/06 03:51:44;;;;;;;14.65;9.43;;;;;;;;;;5044241;28;20025;-81
2021/01/06 03:54:37;;;;;;;16.52;11.15;;;;;;;;;;5040787;28;20017;-81
2021/01/06 03:57:23;;;;;;;15.13;10.10;;;;;;;;;;5038499;28;20095;-80
2021/01/06 04:00:12;;;;;;;13.80;9.32;;;;;;;;;;5036279;28;20109;-82
2021/01/06 04:02:58;;;;;;;15.57;10.18;;;;;;;;;;5034042;28;20455;-80
2021/01/06 04:05:44;;;;;;;17.10;12.02;;;;;;;;;;5037060;28;20053;-79
2021/01/06 04:08:36;;;;;;;17.13;10.68;;;;;;;;;;5047458;28;20016;-80
2021/01/06 04:11:23;;;;;;;16.67;10.73;;;;;;;;;;5043131;28;20017;-80
2021/01/06 04:14:09;;;;;;;17.48;10.45;;;;;;;;;;5037732;28;20116;-81
2021/01/06 04:16:54;;;;;;;19.40;12.32;;;;;;;;;;5040353;28;20128;-80
2021/01/06 04:19:45;;;;;;;16.35;10.38;;;;;;;;;;5039040;28;20029;-80
2021/01/06 04:22:44;;;;;;;18.65;11.27;;;;;;;;;;5034559;28;20035;-81
2021/01/06 04:25:36;;;;;;;17.23;11.80;;;;;;;;;;5038337;28;20017;-81
2021/01/06 04:28:23;;;;;;;14.38;9.80;;;;;;;;;;5035133;28;20039;-81
2021/01/06 04:31:12;;;;;;;15.80;10.35;;;;;;;;;;5034654;28;20368;-82
2021/01/06 04:33:58;;;;;;;14.68;9.85;;;;;;;;;;5035914;28;20131;-81
2021/01/06 04:36:43;;;;;;;16.00;11.18;;;;;;;;;;5040992;28;20032;-81
2021/01/06 04:39:28;;;;;;;15.68;9.60;;;;;;;;;;5040278;28;20030;-81
2021/01/06 04:42:13;;;;;;;16.65;11.13;;;;;;;;;;5035404;28;20483;-81
2021/01/06 04:45:06;;;;;;;15.38;10.60;;;;;;;;;;5037422;28;20553;-81
2021/01/06 04:48:12;;;;;;;18.20;11.73;;;;;;;;;;5035655;28;20026;-82
2021/01/06 04:51:16;;;;;;;16.80;11.18;;;;;;;;;;5035576;28;20032;-81
2021/01/06 04:54:01;;;;;;;16.60;10.23;;;;;;;;;;5040538;28;20020;-81
2021/01/06 04:56:56;;;;;;;22.55;13.63;;;;;;;;;;5041802;28;20375;-81
2021/01/06 04:59:44;;;;;;;18.85;12.02;;;;;;;;;;5039063;28;20020;-81
2021/01/06 05:02:29;;;;;;;20.77;12.60;;;;;;;;;;5039758;28;20464;-80
2021/01/06 05:05:17;;;;;;;21.48;12.23;;;;;;;;;;5038323;28;20025;-81
2021/01/06 05:08:25;;;;;;;21.23;12.88;;;;;;;;;;5034530;28;20065;-81
2021/01/06 05:11:29;;;;;;;21.95;12.65;;;;;;;;;;5040452;28;20033;-81
2021/01/06 05:14:19;;;;;;;21.08;13.02;;;;;;;;;;5033368;28;20040;-81
2021/01/06 05:17:06;;;;;;;22.23;13.88;;;;;;;;;;5040234;28;20488;-80
2021/01/06 05:19:51;;;;;;;22.50;13.45;;;;;;;;;;5040343;28;20032;-81
2021/01/06 05:22:36;;;;;;;17.98;11.45;;;;;;;;;;5036843;28;20040;-81
2021/01/06 05:25:22;;;;;;;23.17;13.32;;;;;;;;;;5035196;28;20025;-82
2021/01/06 05:28:11;;;;;;;20.17;11.15;;;;;;;;;;5044481;28;20029;-81
2021/01/06 05:30:58;;;;;;;22.10;13.48;;;;;;;;;;5033309;28;20112;-81
2021/01/06 05:33:48;;;;;;;22.35;12.13;;;;;;;;;;5034605;28;20470;-82
2021/01/06 05:36:33;;;;;;;21.35;12.88;;;;;;;;;;5046284;28;20032;-82
2021/01/06 05:39:20;;;;;;;17.25;11.52;;;;;;;;;;5033998;28;20028;-81
2021/01/06 05:42:10;;;;;;;18.60;10.70;;;;;;;;;;5035911;28;20426;-82
2021/01/06 05:44:55;;;;;;;;;;;;;;;;;;5032311;28;20090;-82
2021/01/06 05:47:41;;;;;;;17.65;10.82;;;;;;;;;;5033935;28;19936;-82
2021/01/06 05:50:37;;;;;;;18.08;11.05;;;;;;;;;;5034580;28;20375;-81
2021/01/06 05:53:30;;;;;;;16.83;9.32;;;;;;;;;;5038913;28;20706;-82
2021/01/06 05:56:26;;;;;;;18.63;11.40;;;;;;;;;;5044938;28;20132;-82
2021/01/06 05:59:11;;;;;;;19.55;11.88;;;;;;;;;;5041601;28;20053;-82
2021/01/06 06:02:00;;;;;;;17.38;11.68;;;;;;;;;;5030388;28;20044;-82
2021/01/06 06:05:08;;;;;;;19.90;12.82;;;;;;;;;;5041093;28;20108;-82
2021/01/06 06:08:02;;;;;;;20.27;13.63;;;;;;;;;;5030362;28;20480;-82
2021/01/06 06:11:03;;;;;;;15.30;9.95;;;;;;;;;;5037944;28;20072;-82
2021/01/06 06:14:07;;;;;;;15.63;10.90;;;;;;;;;;5036163;28;20176;-81
2021/01/06 06:17:11;;;;;;;17.80;10.80;;;;;;;;;;5031400;28;20033;-80
2021/01/06 06:20:15;;;;;;;18.98;10.48;;;;;;;;;;5031330;28;20540;-81
2021/01/06 06:23:23;;;;;;;17.67;10.10;;;;;;;;;;5035347;28;20650;-81
2021/01/06 06:26:28;;;;;;;17.77;10.85;;;;;;;;;;5043474;28;20591;-80
2021/01/06 06:29:19;;;;;;;15.07;10.13;;;;;;;;;;5033032;28;20052;-82
2021/01/06 06:32:04;;;;;;;16.77;9.52;;;;;;;;;;5034985;28;20025;-82
2021/01/06 06:34:50;;;;;;;22.27;12.40;;;;;;;;;;5036844;28;20033;-81
2021/01/06 06:37:46;;;;;;;17.65;10.07;;;;;;;;;;5042819;28;20029;-80
2021/01/06 06:40:49;;;;;;;18.00;9.85;;;;;;;;;;5039446;28;20536;-80
2021/01/06 06:43:47;;;;;;;13.45;8.10;;;;;;;;;;5029530;28;20395;-80
2021/01/06 06:46:35;;;;;;;14.05;8.88;;;;;;;;;;5035024;28;20696;-79
2021/01/06 06:49:24;;;;;;;13.55;8.55;;;;;;;;;;5030838;28;20013;-80
2021/01/06 06:52:09;;;;;;;14.63;9.47;;;;;;;;;;5028242;28;20105;-79
2021/01/06 06:55:01;;;;;;;14.05;8.95;;;;;;;;;;5032568;28;20060;-80
2021/01/06 06:57:51;;;;;;;12.93;7.55;;;;;;;;;;5033614;28;20049;-80
2021/01/06 07:00:37;;;;;;;13.15;8.55;;;;;;;;;;5036780;28;20059;-80
2021/01/06 07:03:28;;;;;;;14.60;9.27;;;;;;;;;;5036587;28;20021;-80
2021/01/06 07:06:13;;;;;;;13.77;8.75;;;;;;;;;;5032128;28;20021;-81
2021/01/06 07:09:00;;;;;;;15.15;9.95;;;;;;;;;;5035748;28;20028;-81
2021/01/06 07:11:47;;;;;;;12.95;8.80;;;;;;;;;;5031895;28;20043;-82
2021/01/06 07:14:37;;;;;;;18.70;9.90;;;;;;;;;;5041225;28;20029;-81
2021/01/06 07:17:30;;;;;;;15.50;8.98;;;;;;;;;;5026271;28;20075;-81
2021/01/06 07:20:29;;;;;;;14.82;9.18;;;;;;;;;;5040016;28;20040;-80
2021/01/06 07:23:21;;;;;;;16.67;9.07;;;;;;;;;;5031284;28;20515;-81
2021/01/06 07:26:19;;;;;;;15.65;9.52;;;;;;;;;;5030004;28;20025;-80
2021/01/06 07:29:08;;;;;;;13.50;8.05;;;;;;;;;;5031762;28;20025;-80
2021/01/06 07:31:57;;;;;;;102.55;68.53;;;;;;;;;;5030621;28;20043;-80
2021/01/06 07:34:53;;;;;;;18.52;9.38;;;;;;;;;;5041661;28;20021;-80
2021/01/06 07:37:39;;;;;;;15.30;8.57;;;;;;;;;;5035017;28;20025;-81
2021/01/06 07:40:35;;;;;;;11.23;7.10;;;;;;;;;;5037332;28;20535;-81
2021/01/06 07:43:22;;;;;;;15.05;7.88;;;;;;;;;;5029013;28;20017;-81
2021/01/06 07:46:16;;;;;;;13.60;8.45;;;;;;;;;;5032971;28;20415;-81
2021/01/06 07:49:11;;;;;;;15.63;8.57;;;;;;;;;;5029326;28;20123;-79
2021/01/06 07:52:01;;;;;;;13.00;7.95;;;;;;;;;;5034575;28;20029;-78
2021/01/06 07:54:57;;;;;;;13.30;8.25;;;;;;;;;;5030100;28;20024;-78
2021/01/06 07:57:45;;;;;;;11.85;7.90;;;;;;;;;;5032645;28;20555;-78
2021/01/06 08:00:33;;;;;;;13.68;8.25;;;;;;;;;;5035394;28;20036;-77
2021/01/06 08:03:21;;;;;;;11.82;8.40;;;;;;;;;;5035665;28;20013;-78
2021/01/06 08:06:06;;;;;;;14.10;8.10;;;;;;;;;;5039875;28;20044;-78
2021/01/06 08:08:52;;;;;;;14.00;8.52;;;;;;;;;;5028532;28;20060;-79
2021/01/06 08:11:46;;;;;;;32.95;21.90;;;;;;;;;;5034099;28;20021;-78
2021/01/06 08:14:33;;;;;;;16.05;10.70;;;;;;;;;;5034395;28;20475;-78
2021/01/06 08:17:26;;;;;;;13.30;8.50;;;;;;;;;;5035236;28;20063;-78
2021/01/06 08:20:17;;;;;;;14.40;9.02;;;;;;;;;;5042947;28;20060;-78
2021/01/06 08:23:30;;;;;;;11.07;7.43;;;;;;;;;;5042590;28;20550;-78
2021/01/06 08:26:20;;;;;;;15.00;8.82;;;;;;;;;;5034598;28;20542;-78
2021/01/06 08:29:11;;;;;;;12.32;7.97;;;;;;;;;;5033446;28;20025;-78
2021/01/06 08:31:58;;;;;;;12.48;7.90;;;;;;;;;;5029860;28;20032;-78
2021/01/06 08:34:54;;;;;;;12.73;8.70;;;;;;;;;;5040160;28;20375;-78
2021/01/06 08:37:39;;;;;;;12.50;8.52;;;;;;;;;;5041982;28;20491;-78
2021/01/06 08:40:26;;;;;;;13.25;8.65;;;;;;;;;;5029229;28;20025;-78
2021/01/06 08:43:13;;;;;;;14.20;9.38;;;;;;;;;;5042913;28;20028;-78
2021/01/06 08:46:01;;;;;;;19.73;9.38;;;;;;;;;;5032429;28;20037;-78
2021/01/06 08:48:46;;;;;;;14.85;9.40;;;;;;;;;;5042195;28;20036;-78
2021/01/06 08:51:33;;;;;;;12.00;8.25;;;;;;;;;;5039659;28;20370;-78
2021/01/06 08:54:32;;;;;;;13.43;8.85;;;;;;;;;;5036543;28;20483;-77
2021/01/06 08:57:19;;;;;;;10.65;7.20;;;;;;;;;;5029962;28;20065;-77
2021/01/06 09:00:14;;;;;;;11.93;8.43;;;;;;;;;;5027267;28;20033;-78
2021/01/06 09:03:18;;;;;;;11.35;7.55;;;;;;;;;;5035091;28;20045;-78
2021/01/06 09:06:03;;;;;;;53.50;34.63;;;;;;;;;;5032771;28;20293;-79
2021/01/06 09:08:52;;;;;;;16.67;10.27;;;;;;;;;;5031891;28;20067;-79
2021/01/06 09:11:50;;;;;;;14.15;8.48;;;;;;;;;;5033584;28;20067;-82
2021/01/06 09:14:37;;;;;;;12.65;7.80;;;;;;;;;;5040542;28;20033;-80
2021/01/06 09:17:29;;;;;;;13.60;9.02;;;;;;;;;;5041374;28;20060;-77
2021/01/06 09:20:15;;;;;;;12.73;8.88;;;;;;;;;;5041730;28;20108;-76
2021/01/06 09:23:01;;;;;;;12.38;8.85;;;;;;;;;;5036413;28;20060;-79
2021/01/06 09:25:46;;;;;;;13.45;8.43;;;;;;;;;;5035348;28;20025;-78
2021/01/06 09:28:37;;;;;;;14.63;9.40;;;;;;;;;;5043024;28;20017;-78
2021/01/06 09:31:22;;;;;;;14.55;9.18;;;;;;;;;;5044342;28;20028;-80
2021/01/06 09:34:08;;;;;;;12.65;8.98;;;;;;;;;;5031417;28;20415;-76
2021/01/06 09:36:54;;;;;;;12.02;9.02;;;;;;;;;;5038397;28;20025;-77
2021/01/06 09:39:39;;;;;;;13.05;8.65;;;;;;;;;;5042239;28;20088;-77
2021/01/06 09:42:25;;;;;;;13.70;9.02;;;;;;;;;;5036482;28;20024;-77
2021/01/06 09:45:18;;;;;;;11.90;8.82;;;;;;;;;;5033400;28;20549;-80
2021/01/06 09:48:05;;;;;;;13.93;9.40;;;;;;;;;;5036610;28;20036;-78
2021/01/06 09:50:52;;;;;;;11.68;7.95;;;;;;;;;;5035791;28;20088;-80
2021/01/06 09:53:38;;;;;;;12.13;8.43;;;;;;;;;;5039121;28;20031;-78
2021/01/06 09:56:24;;;;;;;11.95;7.97;;;;;;;;;;5035422;28;20045;-78
2021/01/06 09:59:29;;;;;;;13.05;8.82;;;;;;;;;;5036406;28;20116;-76
2021/01/06 10:02:35;;;;;;;12.63;8.65;;;;;;;;;;5036770;28;20037;-79
2021/01/06 10:05:41;;;;;;;11.57;8.05;;;;;;;;;;5048182;28;20017;-79
2021/01/06 10:08:45;;;;;;;12.98;8.35;;;;;;;;;;5038784;28;20025;-78
2021/01/06 10:11:49;;;;;;;12.13;8.35;;;;;;;;;;5041221;28;20420;-78
2021/01/06 10:14:49;;;;;;;97.50;54.17;;;;;;;;;;5036791;28;20029;-77
2021/01/06 10:17:40;;;;;;;13.43;9.43;;;;;;;;;;5041435;28;20052;-76
2021/01/06 10:20:45;;;;;;;13.05;8.68;;;;;;;;;;5038004;28;20049;-77
2021/01/06 10:23:37;;;;;;;10.35;7.45;;;;;;;;;;5037936;28;20063;-77
2021/01/06 10:26:32;;;;;;;11.15;6.65;;;;;;;;;;5040338;28;20468;-74
2021/01/06 10:29:21;;;;;;;11.13;6.93;;;;;;;;;;5031574;28;20021;-76
2021/01/06 10:32:21;;;;;;;10.50;7.55;;;;;;;;;;5037829;28;20072;-75
2021/01/06 10:35:26;;;;;;;12.98;7.85;;;;;;;;;;5032950;28;20029;-77
2021/01/06 10:38:25;;;;;;;11.68;7.88;;;;;;;;;;5053082;28;20563;-77
2021/01/06 10:41:19;;;;;;;12.98;8.85;;;;;;;;;;5027970;28;20036;-77
2021/01/06 10:44:11;;;;;;;27.45;17.95;;;;;;;;;;5035915;28;20120;-77
2021/01/06 10:47:16;;;;;;;14.77;9.10;;;;;;;;;;5037472;28;20021;-78
2021/01/06 10:50:28;;;;;;;13.05;8.75;;;;;;;;;;5034331;28;20523;-78
2021/01/06 10:53:17;;;;;;;13.70;10.25;;;;;;;;;;5032520;28;20036;-78
2021/01/06 10:56:05;;;;;;;13.10;9.18;;;;;;;;;;5038515;28;20499;-78
2021/01/06 10:58:52;;;;;;;13.73;8.88;;;;;;;;;;5035648;28;20120;-78
2021/01/06 11:01:44;;;;;;;14.68;9.20;;;;;;;;;;5031111;28;20029;-78
2021/01/06 11:04:29;;;;;;;12.57;8.68;;;;;;;;;;5036655;28;20406;-77
2021/01/06 11:07:27;;;;;;;12.90;9.05;;;;;;;;;;5038320;28;20025;-78
2021/01/06 11:10:21;;;;;;;12.63;8.18;;;;;;;;;;5034655;28;20029;-78
2021/01/06 11:13:09;;;;;;;12.43;8.32;;;;;;;;;;5029392;28;20029;-78
2021/01/06 11:16:04;;;;;;;15.05;9.43;;;;;;;;;;5035912;28;20116;-78
2021/01/06 11:18:50;;;;;;;12.85;8.57;;;;;;;;;;5033840;28;20468;-77
2021/01/06 11:21:55;;;;;;;13.18;9.00;;;;;;;;;;5033542;28;20395;-78
2021/01/06 11:24:54;;;;;;;13.90;9.18;;;;;;;;;;5033852;28;20699;-77
2021/01/06 11:27:46;;;;;;;13.70;9.10;;;;;;;;;;5017742;28;20083;-77
2021/01/06 11:30:38;;;;;;;14.05;9.45;;;;;;;;;;5039684;28;20248;-78
2021/01/06 11:33:28;;;;;;;14.65;9.98;;;;;;;;;;5027844;28;20074;-82
2021/01/06 11:36:19;;;;;;;14.77;9.75;;;;;;;;;;5033050;28;20083;-83
2021/01/06 11:39:06;;;;;;;11.38;7.75;;;;;;;;;;5035954;28;20029;-79
2021/01/06 11:41:54;;;;;;;13.88;9.95;;;;;;;;;;5044951;28;20040;-78
2021/01/06 11:44:58;;;;;;;15.27;9.55;;;;;;;;;;5043823;28;20032;-77
2021/01/06 11:47:57;;;;;;;13.55;9.57;;;;;;;;;;5032152;28;20029;-79
2021/01/06 11:50:48;;;;;;;17.58;9.30;;;;;;;;;;5038281;28;20357;-79
2021/01/06 11:53:37;;;;;;;12.85;8.98;;;;;;;;;;5035661;28;20655;-76
2021/01/06 11:56:25;;;;;;;45.60;28.23;;;;;;;;;;5037326;28;20047;-76
2021/01/06 11:59:19;;;;;;;22.67;12.98;;;;;;;;;;5039712;28;20254;-76
2021/01/06 12:02:23;;;;;;;13.75;9.02;;;;;;;;;;5042326;28;20048;-78
2021/01/06 12:05:27;;;;;;;14.27;9.55;;;;;;;;;;5042335;28;20056;-78
2021/01/06 12:08:19;;;;;;;12.30;9.50;;;;;;;;;;5040094;28;20078;-78
2021/01/06 12:11:07;;;;;;;12.07;8.50;;;;;;;;;;5038269;28;20063;-78
2021/01/06 12:14:16;;;;;;;11.25;7.88;;;;;;;;;;5035988;28;20028;-78
2021/01/06 12:17:19;;;;;;;13.45;9.25;;;;;;;;;;5043937;28;20031;-77
2021/01/06 12:20:19;;;;;;;12.48;8.07;;;;;;;;;;5040294;28;20034;-76
2021/01/06 12:23:14;;;;;;;10.65;8.35;;;;;;;;;;5044262;28;20025;-77
2021/01/06 12:25:59;;;;;;;13.13;9.05;;;;;;;;;;5045367;28;20489;-76
2021/01/06 12:28:48;;;;;;;12.25;7.82;;;;;;;;;;5037491;28;20021;-75
2021/01/06 12:31:48;;;;;;;13.27;9.02;;;;;;;;;;5038069;28;20024;-77
2021/01/06 12:34:42;;;;;;;12.07;8.52;;;;;;;;;;5038529;28;20282;-76
2021/01/06 12:37:29;;;;;;;11.70;8.18;;;;;;;;;;5040936;28;20045;-76
2021/01/06 12:40:17;;;;;;;10.63;7.57;;;;;;;;;;5033829;28;20117;-76
2021/01/06 12:43:04;;;;;;;11.30;7.65;;;;;;;;;;5037453;28;20092;-77
2021/01/06 12:45:58;;;;;;;13.05;7.40;;;;;;;;;;5034167;28;20040;-76
2021/01/06 12:48:59;;;;;;;11.25;7.78;;;;;;;;;;5045416;28;20116;-75
2021/01/06 12:51:56;;;;;;;11.25;7.40;;;;;;;;;;5039406;28;20507;-77
2021/01/06 12:54:54;;;;;;;10.13;6.82;;;;;;;;;;5036692;28;20108;-77
2021/01/06 12:57:45;;;;;;;10.13;7.32;;;;;;;;;;5031706;28;20142;-77
2021/01/06 13:00:32;;;;;;;10.45;6.95;;;;;;;;;;5036924;28;20025;-77
2021/01/06 13:03:23;;;;;;;11.30;7.65;;;;;;;;;;5045184;28;20031;-78
2021/01/06 13:06:27;;;;;;;18.60;13.00;;;;;;;;;;5036693;28;20039;-78
2021/01/06 13:09:12;;;;;;;12.68;9.27;;;;;;;;;;5036818;28;20033;-76
2021/01/06 13:12:04;;;;;;;9.30;6.70;;;;;;;;;;5029523;28;20495;-77
2021/01/06 13:14:59;;;;;;;8.98;6.43;;;;;;;;;;5038347;28;20467;-77
2021/01/06 13:17:56;;;;;;;8.43;6.00;;;;;;;;;;5036220;28;20068;-77
2021/01/06 13:20:45;;;;;;;8.70;5.57;;;;;;;;;;5040125;28;20028;-77
2021/01/06 13:23:49;;;;;;;7.68;5.47;;;;;;;;;;5041733;28;20029;-78
2021/01/06 13:26:43;;;;;;;7.45;4.97;;;;;;;;;;5032317;28;20025;-77
2021/01/06 13:29:48;;;;;;;6.45;4.70;;;;;;;;;;5035722;28;20090;-77
2021/01/06 13:32:39;;;;;;;8.20;6.00;;;;;;;;;;5036232;28;20018;-77
2021/01/06 13:35:33;;;;;;;7.45;5.25;;;;;;;;;;5040029;28;20221;-77
2021/01/06 13:38:36;;;;;;;7.40;4.53;;;;;;;;;;5034651;28;20013;-77
2021/01/06 13:41:25;;;;;;;7.75;5.25;;;;;;;;;;5036294;28;20029;-78
2021/01/06 13:44:17;;;;;;;7.93;5.22;;;;;;;;;;5034750;28;20033;-77
2021/01/06 13:47:21;;;;;;;6.65;4.95;;;;;;;;;;5024115;28;20036;-77
2021/01/06 13:50:29;;;;;;;6.95;4.82;;;;;;;;;;5038866;28;20479;-78
2021/01/06 13:53:14;;;;;;;6.45;4.18;;;;;;;;;;5040773;28;20038;-77
2021/01/06 13:55:59;;;;;;;7.97;4.75;;;;;;;;;;5035841;28;20052;-76
2021/01/06 13:58:45;;;;;;;7.70;5.28;;;;;;;;;;5034730;28;20109;-78
2021/01/06 14:01:36;;;;;;;7.00;4.68;;;;;;;;;;5034990;28;20489;-77
2021/01/06 14:04:23;;;;;;;7.03;4.55;;;;;;;;;;5029900;28;20033;-77
2021/01/06 14:07:11;;;;;;;6.50;3.70;;;;;;;;;;5038558;28;20025;-77
2021/01/06 14:10:15;;;;;;;7.65;4.70;;;;;;;;;;5037100;28;20099;-76
2021/01/06 14:13:10;;;;;;;8.77;5.70;;;;;;;;;;5033372;28;20044;-76
2021/01/06 14:16:06;;;;;;;8.77;4.72;;;;;;;;;;5035267;28;20079;-77
2021/01/06 14:18:51;;;;;;;6.57;3.92;;;;;;;;;;5037768;28;20052;-77
2021/01/06 14:21:47;;;;;;;8.00;5.28;;;;;;;;;;5034816;28;20033;-78
2021/01/06 14:24:33;;;;;;;7.78;5.18;;;;;;;;;;5033066;28;20040;-78
2021/01/06 14:27:53;;;;;;;7.95;4.38;;;;;;;;;;5032071;28;20021;-78
2021/01/06 14:30:47;;;;;;;31.17;18.67;;;;;;;;;;5044108;28;20553;-77
2021/01/06 14:33:44;;;;;;;12.60;8.32;;;;;;;;;;5032817;28;20075;-77
2021/01/06 14:36:33;;;;;;;6.82;4.40;;;;;;;;;;5039314;28;20055;-76
2021/01/06 14:39:21;;;;;;;7.90;5.03;;;;;;;;;;5036177;28;20029;-78
2021/01/06 14:42:16;;;;;;;5.43;3.53;;;;;;;;;;5034126;28;20120;-78
2021/01/06 14:45:07;;;;;;;21.00;13.43;;;;;;;;;;5036751;28;20123;-77
2021/01/06 14:48:11;;;;;;;6.57;4.18;;;;;;;;;;5037408;28;20398;-77
2021/01/06 14:50:59;;;;;;;6.47;4.20;;;;;;;;;;5035335;28;20047;-76
2021/01/06 14:53:48;;;;;;;6.07;4.00;;;;;;;;;;5036222;28;20021;-76
2021/01/06 14:56:54;;;;;;;6.82;4.97;;;;;;;;;;5037086;28;20076;-79
2021/01/06 14:59:42;;;;;;;6.82;4.85;;;;;;;;;;5029250;28;20056;-78
2021/01/06 15:02:30;;;;;;;5.68;4.28;;;;;;;;;;5038884;28;20118;-77
2021/01/06 15:05:18;;;;;;;8.23;5.13;;;;;;;;;;5030933;28;20025;-77
2021/01/06 15:08:07;;;;;;;7.65;4.85;;;;;;;;;;5029138;28;20043;-77
2021/01/06 15:11:01;;;;;;;5.30;3.17;;;;;;;;;;5034050;28;20024;-77
2021/01/06 15:13:47;;;;;;;6.80;4.25;;;;;;;;;;5033452;28;20030;-78
2021/01/06 15:16:35;;;;;;;7.55;4.00;;;;;;;;;;5030107;28;20033;-78
2021/01/06 15:19:23;;;;;;;5.00;3.50;;;;;;;;;;5033208;28;20068;-78
2021/01/06 15:22:22;;;;;;;4.80;2.95;;;;;;;;;;5034616;28;20025;-76
2021/01/06 15:25:16;;;;;;;5.95;3.95;;;;;;;;;;5036906;28;20103;-78
2021/01/06 15:28:07;;;;;;;5.28;3.50;;;;;;;;;;5035631;28;20039;-79
2021/01/06 15:30:58;;;;;;;6.20;3.50;;;;;;;;;;5030393;28;20036;-78
2021/01/06 15:33:45;;;;;;;6.60;3.60;;;;;;;;;;5042965;28;20029;-77
2021/01/06 15:36:32;;;;;;;5.45;3.60;;;;;;;;;;5036045;28;20029;-79
2021/01/06 15:39:19;;;;;;;6.53;3.55;;;;;;;;;;5032559;28;20063;-78
2021/01/06 15:42:06;;;;;;;49.08;32.33;;;;;;;;;;5034495;28;20025;-77
2021/01/06 15:44:57;;;;;;;9.15;5.07;;;;;;;;;;5031852;28;20483;-77
2021/01/06 15:47:46;;;;;;;5.32;3.75;;;;;;;;;;5031670;28;20095;-78
2021/01/06 15:50:31;;;;;;;6.35;4.60;;;;;;;;;;5032970;28;20032;-78
2021/01/06 15:53:21;;;;;;;5.47;3.90;;;;;;;;;;5033593;28;20021;-78
2021/01/06 15:56:26;;;;;;;5.30;3.80;;;;;;;;;;5034254;28;20117;-77
2021/01/06 15:59:15;;;;;;;8.82;4.82;;;;;;;;;;5040902;28;20104;-78
2021/01/06 16:02:00;;;;;;;5.10;3.53;;;;;;;;;;5038301;28;20035;-79
2021/01/06 16:04:46;;;;;;;6.55;3.85;;;;;;;;;;5032904;28;20021;-78
2021/01/06 16:07:31;;;;;;;6.82;4.50;;;;;;;;;;5034010;28;20094;-77
2021/01/06 16:10:22;;;;;;;7.05;3.95;;;;;;;;;;5032525;28;20804;-77
2021/01/06 16:13:21;;;;;;;6.43;4.00;;;;;;;;;;5031168;28;20499;-78
2021/01/06 16:16:08;;;;;;;5.18;3.38;;;;;;;;;;5035551;28;20504;-77
2021/01/06 16:18:59;;;;;;;41.70;25.65;;;;;;;;;;5034993;28;20063;-79
2021/01/06 16:21:45;;;;;;;26.70;17.17;;;;;;;;;;5034244;28;21564;-76
2021/01/06 16:24:33;;;;;;;11.00;6.43;;;;;;;;;;5030534;28;20096;-77
2021/01/06 16:27:23;;;;;;;7.88;4.60;;;;;;;;;;5034957;28;20025;-78
2021/01/06 16:30:20;;;;;;;7.25;4.90;;;;;;;;;;5033565;28;20036;-77
2021/01/06 16:33:13;;;;;;;4.88;2.83;;;;;;;;;;5039756;28;20033;-78
2021/01/06 16:36:00;;;;;;;5.15;3.13;;;;;;;;;;5032102;28;20494;-76
2021/01/06 16:38:46;;;;;;;4.70;3.03;;;;;;;;;;5045226;28;20482;-78
2021/01/06 16:41:36;;;;;;;6.00;4.30;;;;;;;;;;5037031;28;20376;-78
2021/01/06 16:44:21;;;;;;;7.72;4.25;;;;;;;;;;5037015;28;20478;-77
2021/01/06 16:47:15;;;;;;;8.40;5.45;;;;;;;;;;5035375;28;20020;-77